sensor_id;sensor_type;location;lat;lon;timestamp;pressure;altitude;pressure_sealevel;temperature;humidity
80149;BME280;69473;42.426;26.644;2024-01-30T00:01:48;101031.66;;;0.47;73.58
80149;BME280;69473;42.426;26.644;2024-01-30T00:04:14;101029.88;;;0.46;73.62
80149;BME280;69473;42.426;26.644;2024-01-30T00:06:40;101031.56;;;0.34;73.37
80149;BME280;69473;42.426;26.644;2024-01-30T00:09:05;101033.22;;;0.45;73.47
80149;BME280;69473;42.426;26.644;2024-01-30T00:11:31;101032.56;;;0.36;73.05
80149;BME280;69473;42.426;26.644;2024-01-30T00:13:56;101040.66;;;0.42;73.14
80149;BME280;69473;42.426;26.644;2024-01-30T00:16:23;101038.25;;;0.32;74.32
80149;BME280;69473;42.426;26.644;2024-01-30T00:18:53;101028.47;;;0.26;73.76
80149;BME280;69473;42.426;26.644;2024-01-30T00:21:20;101037.81;;;0.26;73.90
80149;BME280;69473;42.426;26.644;2024-01-30T00:23:46;101033.13;;;0.32;74.12
80149;BME280;69473;42.426;26.644;2024-01-30T00:26:12;101040.22;;;0.36;73.51
80149;BME280;69473;42.426;26.644;2024-01-30T00:28:38;101038.91;;;0.17;74.20
80149;BME280;69473;42.426;26.644;2024-01-30T00:31:04;101028.25;;;0.35;74.18
80149;BME280;69473;42.426;26.644;2024-01-30T00:33:29;101034.47;;;0.27;73.78
80149;BME280;69473;42.426;26.644;2024-01-30T00:35:55;101030.47;;;0.18;74.18
80149;BME280;69473;42.426;26.644;2024-01-30T00:38:21;101041.44;;;0.41;73.56
80149;BME280;69473;42.426;26.644;2024-01-30T00:40:46;101041.53;;;0.42;73.17
80149;BME280;69473;42.426;26.644;2024-01-30T00:43:12;101044.00;;;0.17;74.38
80149;BME280;69473;42.426;26.644;2024-01-30T00:45:37;101041.97;;;0.37;73.72
80149;BME280;69473;42.426;26.644;2024-01-30T00:48:03;101044.09;;;0.31;73.73
80149;BME280;69473;42.426;26.644;2024-01-30T00:50:29;101044.09;;;0.31;73.10
80149;BME280;69473;42.426;26.644;2024-01-30T00:52:55;101045.97;;;0.33;73.48
80149;BME280;69473;42.426;26.644;2024-01-30T00:55:20;101049.75;;;0.50;73.19
80149;BME280;69473;42.426;26.644;2024-01-30T00:57:46;101055.28;;;0.44;73.14
80149;BME280;69473;42.426;26.644;2024-01-30T01:00:13;101051.31;;;0.25;73.47
80149;BME280;69473;42.426;26.644;2024-01-30T01:02:41;101044.66;;;0.27;74.05
80149;BME280;69473;42.426;26.644;2024-01-30T01:05:07;101065.94;;;0.39;73.11
80149;BME280;69473;42.426;26.644;2024-01-30T01:07:32;101051.75;;;0.31;73.15
80149;BME280;69473;42.426;26.644;2024-01-30T01:09:58;101059.59;;;0.57;72.94
80149;BME280;69473;42.426;26.644;2024-01-30T01:12:23;101060.41;;;0.33;73.42
80149;BME280;69473;42.426;26.644;2024-01-30T01:14:49;101052.63;;;0.43;73.07
80149;BME280;69473;42.426;26.644;2024-01-30T01:17:14;101060.69;;;0.49;72.79
80149;BME280;69473;42.426;26.644;2024-01-30T01:19:40;101062.06;;;0.44;73.00
80149;BME280;69473;42.426;26.644;2024-01-30T01:22:06;101050.84;;;0.42;72.23
80149;BME280;69473;42.426;26.644;2024-01-30T01:24:31;101054.84;;;0.50;72.08
80149;BME280;69473;42.426;26.644;2024-01-30T01:26:58;101056.16;;;0.45;72.06
80149;BME280;69473;42.426;26.644;2024-01-30T01:29:24;101053.97;;;0.38;72.25
80149;BME280;69473;42.426;26.644;2024-01-30T01:31:56;101046.75;;;0.44;71.54
80149;BME280;69473;42.426;26.644;2024-01-30T01:34:22;101055.28;;;0.56;71.48
80149;BME280;69473;42.426;26.644;2024-01-30T01:36:49;101051.25;;;0.60;70.78
80149;BME280;69473;42.426;26.644;2024-01-30T01:39:15;101044.84;;;0.53;71.04
80149;BME280;69473;42.426;26.644;2024-01-30T01:41:41;101039.31;;;0.47;70.86
80149;BME280;69473;42.426;26.644;2024-01-30T01:44:07;101039.97;;;0.56;70.39
80149;BME280;69473;42.426;26.644;2024-01-30T01:46:34;101037.94;;;0.52;71.20
80149;BME280;69473;42.426;26.644;2024-01-30T01:49:04;101036.63;;;0.57;69.76
80149;BME280;69473;42.426;26.644;2024-01-30T01:51:32;101033.72;;;0.64;69.88
80149;BME280;69473;42.426;26.644;2024-01-30T01:54:03;101032.84;;;0.52;69.99
80149;BME280;69473;42.426;26.644;2024-01-30T01:56:29;101021.53;;;0.60;69.35
80149;BME280;69473;42.426;26.644;2024-01-30T01:59:00;101018.84;;;0.59;69.99
80149;BME280;69473;42.426;26.644;2024-01-30T02:01:27;101035.16;;;0.61;69.40
80149;BME280;69473;42.426;26.644;2024-01-30T02:03:53;101038.63;;;0.50;70.21
80149;BME280;69473;42.426;26.644;2024-01-30T02:06:19;101037.09;;;0.40;70.55
80149;BME280;69473;42.426;26.644;2024-01-30T02:08:45;101036.19;;;0.51;69.75
80149;BME280;69473;42.426;26.644;2024-01-30T02:11:11;101035.41;;;0.52;69.86
80149;BME280;69473;42.426;26.644;2024-01-30T02:13:37;101037.06;;;0.52;70.39
80149;BME280;69473;42.426;26.644;2024-01-30T02:16:02;101031.59;;;0.71;69.16
80149;BME280;69473;42.426;26.644;2024-01-30T02:18:28;101027.25;;;0.69;68.83
80149;BME280;69473;42.426;26.644;2024-01-30T02:20:56;101043.84;;;0.88;68.12
80149;BME280;69473;42.426;26.644;2024-01-30T02:23:24;101034.56;;;0.77;68.16
80149;BME280;69473;42.426;26.644;2024-01-30T02:25:51;101025.22;;;0.77;67.81
80149;BME280;69473;42.426;26.644;2024-01-30T02:28:19;101024.16;;;0.62;69.34
80149;BME280;69473;42.426;26.644;2024-01-30T02:30:46;101037.63;;;0.59;69.67
80149;BME280;69473;42.426;26.644;2024-01-30T02:33:12;101033.22;;;0.82;68.46
80149;BME280;69473;42.426;26.644;2024-01-30T02:35:38;101028.81;;;0.67;69.06
80149;BME280;69473;42.426;26.644;2024-01-30T02:38:04;101022.59;;;0.76;68.36
80149;BME280;69473;42.426;26.644;2024-01-30T02:40:31;101008.97;;;0.63;69.33
80149;BME280;69473;42.426;26.644;2024-01-30T02:42:58;101020.66;;;0.60;69.08
80149;BME280;69473;42.426;26.644;2024-01-30T02:45:24;101032.63;;;0.49;70.04
80149;BME280;69473;42.426;26.644;2024-01-30T02:47:50;101024.91;;;0.36;69.67
80149;BME280;69473;42.426;26.644;2024-01-30T02:50:15;101014.44;;;0.56;69.25
80149;BME280;69473;42.426;26.644;2024-01-30T02:52:41;101009.81;;;0.76;68.54
80149;BME280;69473;42.426;26.644;2024-01-30T02:55:09;101010.59;;;0.75;67.23
80149;BME280;69473;42.426;26.644;2024-01-30T02:57:35;101015.22;;;0.55;68.34
80149;BME280;69473;42.426;26.644;2024-01-30T03:00:01;101015.22;;;0.55;69.19
80149;BME280;69473;42.426;26.644;2024-01-30T03:02:28;101014.66;;;0.59;68.81
80149;BME280;69473;42.426;26.644;2024-01-30T03:04:53;101013.09;;;0.61;68.52
80149;BME280;69473;42.426;26.644;2024-01-30T03:07:19;101004.69;;;0.62;68.44
80149;BME280;69473;42.426;26.644;2024-01-30T03:09:44;101008.13;;;0.51;69.18
80149;BME280;69473;42.426;26.644;2024-01-30T03:12:10;101000.31;;;0.61;69.03
80149;BME280;69473;42.426;26.644;2024-01-30T03:14:36;100997.06;;;0.51;69.03
80149;BME280;69473;42.426;26.644;2024-01-30T03:17:01;101003.50;;;0.71;68.44
80149;BME280;69473;42.426;26.644;2024-01-30T03:19:28;100994.16;;;0.83;67.71
80149;BME280;69473;42.426;26.644;2024-01-30T03:21:53;100990.28;;;0.76;67.98
80149;BME280;69473;42.426;26.644;2024-01-30T03:24:19;101005.47;;;0.75;67.99
80149;BME280;69473;42.426;26.644;2024-01-30T03:26:44;101012.59;;;0.79;67.99
80149;BME280;69473;42.426;26.644;2024-01-30T03:29:10;101025.44;;;0.80;68.26
80149;BME280;69473;42.426;26.644;2024-01-30T03:31:35;101024.34;;;0.77;68.44
80149;BME280;69473;42.426;26.644;2024-01-30T03:34:02;101040.19;;;0.59;68.85
80149;BME280;69473;42.426;26.644;2024-01-30T03:36:28;101018.41;;;0.64;68.47
80149;BME280;69473;42.426;26.644;2024-01-30T03:38:54;101017.47;;;0.76;68.36
80149;BME280;69473;42.426;26.644;2024-01-30T03:41:19;101017.91;;;0.82;68.46
80149;BME280;69473;42.426;26.644;2024-01-30T03:43:45;100992.19;;;0.79;68.00
80149;BME280;69473;42.426;26.644;2024-01-30T03:46:14;100985.22;;;0.64;69.19
80149;BME280;69473;42.426;26.644;2024-01-30T03:48:39;100992.25;;;0.55;69.20
80149;BME280;69473;42.426;26.644;2024-01-30T03:51:05;100994.38;;;0.49;70.29
80149;BME280;69473;42.426;26.644;2024-01-30T03:53:31;100989.75;;;0.68;69.21
80149;BME280;69473;42.426;26.644;2024-01-30T03:55:56;100980.13;;;0.64;69.74
80149;BME280;69473;42.426;26.644;2024-01-30T03:58:22;100968.75;;;0.59;70.23
80149;BME280;69473;42.426;26.644;2024-01-30T04:00:48;100960.72;;;0.66;70.20
80149;BME280;69473;42.426;26.644;2024-01-30T04:03:16;100961.84;;;0.58;69.44
80149;BME280;69473;42.426;26.644;2024-01-30T04:05:42;100957.91;;;0.50;70.42
80149;BME280;69473;42.426;26.644;2024-01-30T04:08:07;100963.94;;;0.39;71.46
80149;BME280;69473;42.426;26.644;2024-01-30T04:10:34;100959.84;;;0.66;70.30
80149;BME280;69473;42.426;26.644;2024-01-30T04:13:00;100969.88;;;0.51;70.17
80149;BME280;69473;42.426;26.644;2024-01-30T04:15:26;100978.09;;;0.47;71.38
80149;BME280;69473;42.426;26.644;2024-01-30T04:17:52;100980.06;;;0.51;70.84
80149;BME280;69473;42.426;26.644;2024-01-30T04:20:18;100980.44;;;0.44;71.23
80149;BME280;69473;42.426;26.644;2024-01-30T04:22:44;100984.06;;;0.59;70.77
80149;BME280;69473;42.426;26.644;2024-01-30T04:25:11;100991.53;;;0.69;70.02
80149;BME280;69473;42.426;26.644;2024-01-30T04:27:37;100983.84;;;0.56;71.04
80149;BME280;69473;42.426;26.644;2024-01-30T04:30:03;100986.47;;;0.58;70.44
80149;BME280;69473;42.426;26.644;2024-01-30T04:32:29;100982.47;;;0.61;71.05
80149;BME280;69473;42.426;26.644;2024-01-30T04:34:54;100986.03;;;0.63;70.50
80149;BME280;69473;42.426;26.644;2024-01-30T04:37:20;100987.56;;;0.61;70.64
80149;BME280;69473;42.426;26.644;2024-01-30T04:39:45;100983.09;;;0.71;70.49
80149;BME280;69473;42.426;26.644;2024-01-30T04:42:11;101003.06;;;0.76;70.01
80149;BME280;69473;42.426;26.644;2024-01-30T04:44:37;100999.97;;;0.68;70.37
80149;BME280;69473;42.426;26.644;2024-01-30T04:47:02;101010.59;;;0.75;70.95
80149;BME280;69473;42.426;26.644;2024-01-30T04:49:30;100988.78;;;0.66;71.09
80149;BME280;69473;42.426;26.644;2024-01-30T04:51:56;101001.38;;;0.77;70.64
80149;BME280;69473;42.426;26.644;2024-01-30T04:54:22;101001.84;;;0.71;70.97
80149;BME280;69473;42.426;26.644;2024-01-30T04:56:47;101001.28;;;0.75;71.59
80149;BME280;69473;42.426;26.644;2024-01-30T04:59:13;101012.53;;;0.65;71.96
80149;BME280;69473;42.426;26.644;2024-01-30T05:01:38;101015.09;;;0.65;72.40
80149;BME280;69473;42.426;26.644;2024-01-30T05:04:04;101011.09;;;0.69;71.36
80149;BME280;69473;42.426;26.644;2024-01-30T05:06:32;101015.03;;;0.77;71.57
80149;BME280;69473;42.426;26.644;2024-01-30T05:08:57;101013.50;;;0.67;72.21
80149;BME280;69473;42.426;26.644;2024-01-30T05:11:23;101010.16;;;0.68;71.83
80149;BME280;69473;42.426;26.644;2024-01-30T05:13:49;101026.63;;;0.60;72.93
80149;BME280;69473;42.426;26.644;2024-01-30T05:16:14;101023.72;;;0.67;71.91
80149;BME280;69473;42.426;26.644;2024-01-30T05:18:40;101031.72;;;0.60;72.17
80149;BME280;69473;42.426;26.644;2024-01-30T05:21:05;101040.28;;;0.49;72.79
80149;BME280;69473;42.426;26.644;2024-01-30T05:23:31;101041.38;;;0.64;72.13
80149;BME280;69473;42.426;26.644;2024-01-30T05:25:57;101033.28;;;0.58;72.42
80149;BME280;69473;42.426;26.644;2024-01-30T05:28:22;101042.72;;;0.59;72.08
80149;BME280;69473;42.426;26.644;2024-01-30T05:30:48;101044.56;;;0.74;71.28
80149;BME280;69473;42.426;26.644;2024-01-30T05:33:13;101051.34;;;0.61;72.19
80149;BME280;69473;42.426;26.644;2024-01-30T05:35:39;101062.56;;;0.63;71.40
80149;BME280;69473;42.426;26.644;2024-01-30T05:38:04;101058.13;;;0.61;71.82
80149;BME280;69473;42.426;26.644;2024-01-30T05:40:30;101057.25;;;0.49;72.77
80149;BME280;69473;42.426;26.644;2024-01-30T05:42:56;101067.38;;;0.84;70.96
80149;BME280;69473;42.426;26.644;2024-01-30T05:45:23;101069.41;;;0.76;71.33
80149;BME280;69473;42.426;26.644;2024-01-30T05:47:49;101071.13;;;0.52;72.36
80149;BME280;69473;42.426;26.644;2024-01-30T05:50:14;101067.22;;;0.69;71.03
80149;BME280;69473;42.426;26.644;2024-01-30T05:52:40;101073.41;;;0.73;71.17
80149;BME280;69473;42.426;26.644;2024-01-30T05:55:06;101070.28;;;0.77;70.65
80149;BME280;69473;42.426;26.644;2024-01-30T05:57:32;101077.44;;;0.57;71.59
80149;BME280;69473;42.426;26.644;2024-01-30T05:59:57;101079.19;;;0.70;71.58
80149;BME280;69473;42.426;26.644;2024-01-30T06:02:23;101075.91;;;0.59;71.98
80149;BME280;69473;42.426;26.644;2024-01-30T06:04:49;101077.00;;;0.63;71.89
80149;BME280;69473;42.426;26.644;2024-01-30T06:07:14;101077.34;;;0.81;71.10
80149;BME280;69473;42.426;26.644;2024-01-30T06:09:40;101077.22;;;0.66;71.96
80149;BME280;69473;42.426;26.644;2024-01-30T06:12:06;101081.81;;;0.72;71.57
80149;BME280;69473;42.426;26.644;2024-01-30T06:14:32;101083.63;;;0.73;71.71
80149;BME280;69473;42.426;26.644;2024-01-30T06:16:59;101078.38;;;0.71;71.50
80149;BME280;69473;42.426;26.644;2024-01-30T06:19:24;101082.41;;;0.67;71.68
80149;BME280;69473;42.426;26.644;2024-01-30T06:21:50;101078.59;;;0.74;71.37
80149;BME280;69473;42.426;26.644;2024-01-30T06:24:16;101075.16;;;0.74;72.38
80149;BME280;69473;42.426;26.644;2024-01-30T06:26:41;101077.16;;;0.78;71.83
80149;BME280;69473;42.426;26.644;2024-01-30T06:29:07;101078.53;;;0.61;72.45
80149;BME280;69473;42.426;26.644;2024-01-30T06:31:33;101067.22;;;0.57;73.06
80149;BME280;69473;42.426;26.644;2024-01-30T06:33:58;101057.81;;;0.56;73.18
80149;BME280;69473;42.426;26.644;2024-01-30T06:36:24;101060.59;;;0.59;72.89
80149;BME280;69473;42.426;26.644;2024-01-30T06:38:49;101056.59;;;0.63;72.47
80149;BME280;69473;42.426;26.644;2024-01-30T06:41:15;101058.75;;;0.82;71.92
80149;BME280;69473;42.426;26.644;2024-01-30T06:43:41;101078.72;;;0.76;71.75
80149;BME280;69473;42.426;26.644;2024-01-30T06:46:06;101066.41;;;0.82;71.60
80149;BME280;69473;42.426;26.644;2024-01-30T06:48:32;101064.47;;;0.91;71.09
80149;BME280;69473;42.426;26.644;2024-01-30T06:50:59;101053.00;;;0.73;72.47
80149;BME280;69473;42.426;26.644;2024-01-30T06:53:25;101061.16;;;0.80;72.30
80149;BME280;69473;42.426;26.644;2024-01-30T06:55:52;101059.19;;;0.76;71.79
80149;BME280;69473;42.426;26.644;2024-01-30T06:58:17;101073.63;;;0.76;72.45
80149;BME280;69473;42.426;26.644;2024-01-30T07:00:43;101068.53;;;0.76;72.46
80149;BME280;69473;42.426;26.644;2024-01-30T07:03:08;101064.47;;;0.91;71.83
80149;BME280;69473;42.426;26.644;2024-01-30T07:05:34;101069.59;;;0.91;71.45
80149;BME280;69473;42.426;26.644;2024-01-30T07:07:59;101061.38;;;0.83;71.92
80149;BME280;69473;42.426;26.644;2024-01-30T07:10:25;101067.94;;;0.80;71.66
80149;BME280;69473;42.426;26.644;2024-01-30T07:12:51;101061.75;;;1.01;71.07
80149;BME280;69473;42.426;26.644;2024-01-30T07:15:16;101052.88;;;0.96;71.15
80149;BME280;69473;42.426;26.644;2024-01-30T07:17:45;101053.41;;;0.79;71.45
80149;BME280;69473;42.426;26.644;2024-01-30T07:20:11;101073.22;;;0.95;71.53
80149;BME280;69473;42.426;26.644;2024-01-30T07:22:37;101071.09;;;1.01;71.01
80149;BME280;69473;42.426;26.644;2024-01-30T07:25:02;101067.28;;;1.07;70.69
80149;BME280;69473;42.426;26.644;2024-01-30T07:27:28;101061.03;;;1.15;70.11
80149;BME280;69473;42.426;26.644;2024-01-30T07:29:54;101052.38;;;1.13;69.69
80149;BME280;69473;42.426;26.644;2024-01-30T07:32:19;101043.31;;;1.05;70.02
80149;BME280;69473;42.426;26.644;2024-01-30T07:34:45;101054.75;;;1.24;69.56
80149;BME280;69473;42.426;26.644;2024-01-30T07:37:10;101051.44;;;1.25;69.53
80149;BME280;69473;42.426;26.644;2024-01-30T07:39:38;101051.88;;;1.31;69.17
80149;BME280;69473;42.426;26.644;2024-01-30T07:42:04;101048.94;;;1.38;68.63
80149;BME280;69473;42.426;26.644;2024-01-30T07:44:29;101057.84;;;1.31;68.70
80149;BME280;69473;42.426;26.644;2024-01-30T07:46:55;101067.38;;;1.34;68.61
80149;BME280;69473;42.426;26.644;2024-01-30T07:49:21;101058.69;;;1.44;68.46
80149;BME280;69473;42.426;26.644;2024-01-30T07:51:46;101049.88;;;1.27;68.80
80149;BME280;69473;42.426;26.644;2024-01-30T07:54:12;101046.94;;;1.34;68.47
80149;BME280;69473;42.426;26.644;2024-01-30T07:56:38;101051.56;;;1.39;68.73
80149;BME280;69473;42.426;26.644;2024-01-30T07:59:03;101069.78;;;1.44;68.65
80149;BME280;69473;42.426;26.644;2024-01-30T08:01:29;101057.03;;;1.57;67.61
80149;BME280;69473;42.426;26.644;2024-01-30T08:03:54;101061.94;;;1.54;68.15
80149;BME280;69473;42.426;26.644;2024-01-30T08:06:20;101071.53;;;1.45;68.28
80149;BME280;69473;42.426;26.644;2024-01-30T08:08:45;101070.66;;;1.45;68.26
80149;BME280;69473;42.426;26.644;2024-01-30T08:11:12;101071.00;;;1.63;67.66
80149;BME280;69473;42.426;26.644;2024-01-30T08:13:37;101068.78;;;1.55;68.36
80149;BME280;69473;42.426;26.644;2024-01-30T08:16:03;101078.81;;;1.52;68.37
80149;BME280;69473;42.426;26.644;2024-01-30T08:18:29;101068.91;;;1.57;67.59
80149;BME280;69473;42.426;26.644;2024-01-30T08:20:55;101077.47;;;1.57;67.85
80149;BME280;69473;42.426;26.644;2024-01-30T08:23:21;101078.81;;;1.52;68.35
80149;BME280;69473;42.426;26.644;2024-01-30T08:25:46;101078.34;;;1.58;68.38
80149;BME280;69473;42.426;26.644;2024-01-30T08:28:12;101080.59;;;1.53;68.16
80149;BME280;69473;42.426;26.644;2024-01-30T08:30:37;101079.63;;;1.65;67.84
80149;BME280;69473;42.426;26.644;2024-01-30T08:33:05;101079.63;;;1.65;68.43
80149;BME280;69473;42.426;26.644;2024-01-30T08:35:30;101083.78;;;1.76;68.02
80149;BME280;69473;42.426;26.644;2024-01-30T08:37:59;101075.50;;;1.67;68.48
80149;BME280;69473;42.426;26.644;2024-01-30T08:40:26;101080.22;;;1.74;68.45
80149;BME280;69473;42.426;26.644;2024-01-30T08:42:53;101086.16;;;1.73;68.19
80149;BME280;69473;42.426;26.644;2024-01-30T08:45:18;101081.44;;;1.92;67.26
80149;BME280;69473;42.426;26.644;2024-01-30T08:47:44;101091.25;;;1.86;67.93
80149;BME280;69473;42.426;26.644;2024-01-30T08:50:10;101081.25;;;1.89;67.29
80149;BME280;69473;42.426;26.644;2024-01-30T08:52:35;101093.34;;;1.78;68.17
80149;BME280;69473;42.426;26.644;2024-01-30T08:55:01;101083.91;;;1.91;66.84
80149;BME280;69473;42.426;26.644;2024-01-30T08:57:26;101091.47;;;1.89;66.98
80149;BME280;69473;42.426;26.644;2024-01-30T08:59:54;101077.72;;;1.87;67.23
80149;BME280;69473;42.426;26.644;2024-01-30T09:02:20;101076.31;;;1.92;67.39
80149;BME280;69473;42.426;26.644;2024-01-30T09:04:46;101071.59;;;2.12;65.95
80149;BME280;69473;42.426;26.644;2024-01-30T09:07:11;101082.44;;;2.07;66.62
80149;BME280;69473;42.426;26.644;2024-01-30T09:09:39;101080.47;;;2.03;67.14
80149;BME280;69473;42.426;26.644;2024-01-30T09:12:06;101076.72;;;1.98;66.75
80149;BME280;69473;42.426;26.644;2024-01-30T09:14:36;101073.28;;;2.11;66.34
80149;BME280;69473;42.426;26.644;2024-01-30T09:17:01;101086.00;;;2.10;66.37
80149;BME280;69473;42.426;26.644;2024-01-30T09:19:28;101083.22;;;2.20;65.73
80149;BME280;69473;42.426;26.644;2024-01-30T09:21:54;101085.97;;;2.23;65.50
80149;BME280;69473;42.426;26.644;2024-01-30T09:24:19;101082.34;;;2.19;65.34
80149;BME280;69473;42.426;26.644;2024-01-30T09:26:45;101079.47;;;2.41;65.03
80149;BME280;69473;42.426;26.644;2024-01-30T09:29:11;101064.72;;;2.24;65.42
80149;BME280;69473;42.426;26.644;2024-01-30T09:31:36;101084.00;;;2.32;65.39
80149;BME280;69473;42.426;26.644;2024-01-30T09:34:02;101080.25;;;2.27;65.21
80149;BME280;69473;42.426;26.644;2024-01-30T09:36:27;101078.88;;;2.32;65.06
80149;BME280;69473;42.426;26.644;2024-01-30T09:38:53;101069.25;;;2.41;64.43
80149;BME280;69473;42.426;26.644;2024-01-30T09:41:19;101074.75;;;2.21;64.87
80149;BME280;69473;42.426;26.644;2024-01-30T09:43:48;101060.97;;;2.32;64.43
80149;BME280;69473;42.426;26.644;2024-01-30T09:46:16;101067.59;;;2.28;64.43
80149;BME280;69473;42.426;26.644;2024-01-30T09:48:46;101050.78;;;2.19;64.44
80149;BME280;69473;42.426;26.644;2024-01-30T09:51:14;101056.56;;;2.16;64.89
80149;BME280;69473;42.426;26.644;2024-01-30T09:53:42;101052.91;;;2.26;64.54
80149;BME280;69473;42.426;26.644;2024-01-30T09:56:09;101053.13;;;2.16;65.04
80149;BME280;69473;42.426;26.644;2024-01-30T09:58:34;101054.47;;;2.24;65.22
80149;BME280;69473;42.426;26.644;2024-01-30T10:01:00;101043.47;;;2.38;64.29
80149;BME280;69473;42.426;26.644;2024-01-30T10:03:26;101046.63;;;2.34;64.78
80149;BME280;69473;42.426;26.644;2024-01-30T10:05:52;101044.25;;;2.24;65.53
80149;BME280;69473;42.426;26.644;2024-01-30T10:08:18;101042.47;;;2.36;65.10
80149;BME280;69473;42.426;26.644;2024-01-30T10:10:49;101051.84;;;2.22;66.19
80149;BME280;69473;42.426;26.644;2024-01-30T10:13:15;101039.03;;;2.36;65.07
80149;BME280;69473;42.426;26.644;2024-01-30T10:15:42;101040.69;;;2.48;64.11
80149;BME280;69473;42.426;26.644;2024-01-30T10:18:11;101028.81;;;2.64;63.69
80149;BME280;69473;42.426;26.644;2024-01-30T10:20:37;101027.94;;;2.91;63.39
80149;BME280;69473;42.426;26.644;2024-01-30T10:23:03;101018.25;;;3.00;62.04
80149;BME280;69473;42.426;26.644;2024-01-30T10:25:30;101015.56;;;2.84;62.91
80149;BME280;69473;42.426;26.644;2024-01-30T10:27:56;101017.09;;;2.95;62.71
80149;BME280;69473;42.426;26.644;2024-01-30T10:30:22;101023.94;;;3.10;61.77
80149;BME280;69473;42.426;26.644;2024-01-30T10:32:48;101015.22;;;3.51;60.79
80149;BME280;69473;42.426;26.644;2024-01-30T10:35:15;100998.69;;;3.45;60.80
80149;BME280;69473;42.426;26.644;2024-01-30T10:37:43;101007.44;;;3.64;59.81
80149;BME280;69473;42.426;26.644;2024-01-30T10:40:13;101009.28;;;3.81;58.39
80149;BME280;69473;42.426;26.644;2024-01-30T10:42:45;101012.25;;;4.04;57.55
80149;BME280;69473;42.426;26.644;2024-01-30T10:45:12;101003.09;;;3.92;57.93
80149;BME280;69473;42.426;26.644;2024-01-30T10:47:41;101001.13;;;3.88;58.58
80149;BME280;69473;42.426;26.644;2024-01-30T10:50:09;100995.47;;;3.79;59.31
80149;BME280;69473;42.426;26.644;2024-01-30T10:52:36;100987.91;;;3.66;59.74
80149;BME280;69473;42.426;26.644;2024-01-30T10:55:04;100992.16;;;3.51;59.69
80149;BME280;69473;42.426;26.644;2024-01-30T10:57:34;101003.81;;;3.31;60.79
80149;BME280;69473;42.426;26.644;2024-01-30T11:00:05;101001.16;;;3.29;60.51
80149;BME280;69473;42.426;26.644;2024-01-30T11:02:39;101008.75;;;3.13;61.13
80149;BME280;69473;42.426;26.644;2024-01-30T11:05:05;101009.41;;;2.95;62.25
80149;BME280;69473;42.426;26.644;2024-01-30T11:07:31;100998.50;;;3.13;60.93
80149;BME280;69473;42.426;26.644;2024-01-30T11:12:26;100999.00;;;3.07;61.47
80149;BME280;69473;42.426;26.644;2024-01-30T11:15:21;100995.47;;;3.05;61.28
80149;BME280;69473;42.426;26.644;2024-01-30T11:20:29;100987.34;;;2.97;61.28
80149;BME280;69473;42.426;26.644;2024-01-30T11:23:02;100984.34;;;3.05;61.44
80149;BME280;69473;42.426;26.644;2024-01-30T11:25:32;100975.69;;;3.17;61.05
80149;BME280;69473;42.426;26.644;2024-01-30T11:27:58;100970.31;;;3.42;59.63
80149;BME280;69473;42.426;26.644;2024-01-30T11:30:31;100959.97;;;3.56;59.26
80149;BME280;69473;42.426;26.644;2024-01-30T11:33:09;100948.69;;;3.37;60.40
80149;BME280;69473;42.426;26.644;2024-01-30T11:35:43;100945.25;;;3.22;59.99
80149;BME280;69473;42.426;26.644;2024-01-30T11:38:11;100953.47;;;3.31;59.92
80149;BME280;69473;42.426;26.644;2024-01-30T11:40:39;100955.22;;;3.32;59.39
80149;BME280;69473;42.426;26.644;2024-01-30T11:43:07;100956.91;;;3.32;60.24
80149;BME280;69473;42.426;26.644;2024-01-30T11:45:34;100960.16;;;3.29;60.30
80149;BME280;69473;42.426;26.644;2024-01-30T11:48:00;100955.22;;;3.32;59.76
80149;BME280;69473;42.426;26.644;2024-01-30T11:50:29;100952.56;;;3.31;59.07
80149;BME280;69473;42.426;26.644;2024-01-30T11:52:55;100964.94;;;3.38;58.39
80149;BME280;69473;42.426;26.644;2024-01-30T11:55:23;100953.81;;;3.37;59.32
80149;BME280;69473;42.426;26.644;2024-01-30T11:57:48;100956.72;;;3.29;58.91
80149;BME280;69473;42.426;26.644;2024-01-30T12:00:18;100966.91;;;3.27;59.63
80149;BME280;69473;42.426;26.644;2024-01-30T12:02:50;100959.81;;;3.23;59.74
80149;BME280;69473;42.426;26.644;2024-01-30T12:05:16;100969.28;;;3.24;59.33
80149;BME280;69473;42.426;26.644;2024-01-30T12:07:45;100957.69;;;3.31;58.62
80149;BME280;69473;42.426;26.644;2024-01-30T12:10:13;100960.16;;;3.29;58.93
80149;BME280;69473;42.426;26.644;2024-01-30T12:12:41;100953.91;;;3.24;59.79
80149;BME280;69473;42.426;26.644;2024-01-30T12:15:08;100956.66;;;3.27;58.95
80149;BME280;69473;42.426;26.644;2024-01-30T12:17:35;100953.81;;;3.37;57.83
80149;BME280;69473;42.426;26.644;2024-01-30T12:20:04;100955.03;;;3.29;58.04
80149;BME280;69473;42.426;26.644;2024-01-30T12:22:30;100955.38;;;3.35;58.14
80149;BME280;69473;42.426;26.644;2024-01-30T12:24:56;100955.91;;;3.44;58.34
80149;BME280;69473;42.426;26.644;2024-01-30T12:27:23;100963.88;;;3.34;58.52
80149;BME280;69473;42.426;26.644;2024-01-30T12:29:55;100967.03;;;3.30;58.58
80149;BME280;69473;42.426;26.644;2024-01-30T12:32:22;100964.94;;;3.23;58.72
80149;BME280;69473;42.426;26.644;2024-01-30T12:34:48;100963.69;;;3.01;59.23
80149;BME280;69473;42.426;26.644;2024-01-30T12:37:14;100965.09;;;2.96;60.04
80149;BME280;69473;42.426;26.644;2024-01-30T12:39:40;100961.56;;;2.94;60.01
80149;BME280;69473;42.426;26.644;2024-01-30T12:42:06;100965.78;;;2.94;60.14
80149;BME280;69473;42.426;26.644;2024-01-30T12:44:31;100970.03;;;2.93;59.62
80149;BME280;69473;42.426;26.644;2024-01-30T12:46:57;100974.78;;;2.87;60.47
80149;BME280;69473;42.426;26.644;2024-01-30T12:49:22;100970.22;;;2.96;60.21
80149;BME280;69473;42.426;26.644;2024-01-30T12:51:48;100961.56;;;2.94;60.05